createdAt,value
2022-12-03T00:02:30.238Z,101306.84
2022-12-03T00:05:33.093Z,101311.13
2022-12-03T00:08:35.715Z,101309.41
2022-12-03T00:11:38.543Z,101313.69
2022-12-03T00:14:44.662Z,101321.41
2022-12-03T00:17:47.849Z,101327.34
2022-12-03T00:20:50.453Z,101326.47
2022-12-03T00:23:53.354Z,101329.91
2022-12-03T00:26:56.049Z,101328.19
2022-12-03T00:29:58.785Z,101323.94
2022-12-03T00:33:01.188Z,101329.94
2022-12-03T00:36:04.246Z,101334.19
2022-12-03T00:39:06.934Z,101323.97
2022-12-03T00:42:09.835Z,101335.06
2022-12-03T00:45:12.766Z,101332.47
2022-12-03T00:48:15.698Z,101337.56
2022-12-03T00:51:18.542Z,101338.47
2022-12-03T00:54:23.581Z,101341.03
2022-12-03T00:57:29.491Z,101342.66
2022-12-03T01:00:32.307Z,101336.75
2022-12-03T01:03:35.069Z,101332.47
2022-12-03T01:06:37.923Z,101331.66
2022-12-03T01:09:40.398Z,101334.19
2022-12-03T01:12:43.309Z,101336.69
2022-12-03T01:15:45.812Z,101331.59
2022-12-03T01:18:48.671Z,101327.34
2022-12-03T01:21:52.056Z,101327.28
2022-12-03T01:24:55.052Z,101332.41
2022-12-03T01:27:57.752Z,101334.13
2022-12-03T01:31:19.185Z,101335.00
2022-12-03T01:34:21.666Z,101337.63
2022-12-03T01:37:26.098Z,101332.47
2022-12-03T01:40:28.647Z,101336.75
2022-12-03T01:43:32.986Z,101338.47
2022-12-03T01:46:40.350Z,101340.16
2022-12-03T01:49:48.201Z,101343.56
2022-12-03T01:52:51.164Z,101346.09
2022-12-03T01:55:54.015Z,101352.06
2022-12-03T01:58:56.655Z,101340.97
2022-12-03T02:02:00.505Z,101347.81
2022-12-03T02:05:15.300Z,101341.03
2022-12-03T02:08:28.261Z,101344.47
2022-12-03T02:11:35.232Z,101335.91
2022-12-03T02:14:38.016Z,101340.16
2022-12-03T02:17:40.817Z,101334.19
2022-12-03T02:21:13.988Z,101331.63
2022-12-03T02:24:46.338Z,101331.59
2022-12-03T02:27:49.899Z,101329.03
2022-12-03T02:30:52.394Z,101330.75
2022-12-03T02:33:55.207Z,101331.66
2022-12-03T02:36:57.774Z,101329.88
2022-12-03T02:40:06.624Z,101335.03
2022-12-03T02:43:10.540Z,101328.22
2022-12-03T02:46:13.316Z,101333.31
2022-12-03T02:49:15.946Z,101338.47
2022-12-03T02:52:19.480Z,101337.63
2022-12-03T02:55:23.421Z,101336.72
2022-12-03T02:58:29.777Z,101329.91
2022-12-03T03:01:32.657Z,101334.22
2022-12-03T03:04:35.529Z,101336.78
2022-12-03T03:07:39.076Z,101347.88
2022-12-03T03:10:43.357Z,101342.72
2022-12-03T03:13:46.302Z,101341.03
2022-12-03T03:16:56.011Z,101335.09
2022-12-03T03:19:58.746Z,101332.47
2022-12-03T03:23:18.937Z,101326.53
2022-12-03T03:26:21.436Z,101326.56
2022-12-03T03:29:24.843Z,101334.22
2022-12-03T03:32:28.761Z,101343.59
2022-12-03T03:35:31.599Z,101333.41
2022-12-03T03:38:34.558Z,101337.66
2022-12-03T03:41:38.840Z,101328.28
2022-12-03T03:44:41.603Z,101328.34
2022-12-03T03:47:45.155Z,101324.13
2022-12-03T03:50:48.261Z,101334.28
2022-12-03T03:53:51.898Z,101334.31
2022-12-03T03:56:56.112Z,101336.03
2022-12-03T03:59:59.708Z,101330.00
2022-12-03T04:03:04.327Z,101332.56
2022-12-03T04:06:07.514Z,101329.16
2022-12-03T04:09:09.970Z,101330.91
2022-12-03T04:12:31.927Z,101330.06
2022-12-03T04:15:34.591Z,101339.44
2022-12-03T04:18:43.036Z,101342.03
2022-12-03T04:22:04.195Z,101338.59
2022-12-03T04:25:28.799Z,101342.88
2022-12-03T04:28:49.113Z,101342.88
2022-12-03T04:32:10.723Z,101342.03
2022-12-03T04:35:32.682Z,101337.75
2022-12-03T04:38:35.508Z,101334.34
2022-12-03T04:41:38.030Z,101337.81
2022-12-03T04:44:40.911Z,101330.94
2022-12-03T04:47:45.027Z,101342.03
2022-12-03T04:50:48.140Z,101331.81
2022-12-03T04:53:50.612Z,101336.13
2022-12-03T04:56:53.396Z,101345.56
2022-12-03T04:59:56.099Z,101348.06
2022-12-03T05:02:59.324Z,101348.97
2022-12-03T05:06:01.853Z,101352.34
2022-12-03T05:09:04.817Z,101352.37
2022-12-03T05:12:07.317Z,101353.25
2022-12-03T05:15:11.372Z,101350.66
2022-12-03T05:18:16.788Z,101354.03
2022-12-03T05:21:19.532Z,101360.84
2022-12-03T05:24:22.002Z,101357.47
2022-12-03T05:27:24.763Z,101367.62
2022-12-03T05:30:27.401Z,101365.06
2022-12-03T05:33:30.185Z,101367.62
2022-12-03T05:36:32.724Z,101367.69
2022-12-03T05:39:35.666Z,101360.75
2022-12-03T05:42:56.768Z,101359.88
2022-12-03T05:45:59.579Z,101352.19
2022-12-03T05:49:05.806Z,101359.06
2022-12-03T05:52:08.583Z,101360.72
2022-12-03T05:55:11.874Z,101359.03
2022-12-03T05:58:14.637Z,101358.16
2022-12-03T06:01:17.155Z,101366.78
2022-12-03T06:04:19.928Z,101364.22
2022-12-03T06:07:22.458Z,101377.00
2022-12-03T06:10:26.023Z,101379.50
2022-12-03T06:13:28.433Z,101386.41
2022-12-03T06:16:31.353Z,101384.72
2022-12-03T06:19:34.269Z,101387.31
2022-12-03T06:22:37.039Z,101380.50
2022-12-03T06:25:39.628Z,101376.19
2022-12-03T06:28:46.392Z,101374.59
2022-12-03T06:31:48.869Z,101371.06
2022-12-03T06:34:52.028Z,101375.31
2022-12-03T06:37:54.715Z,101371.94
2022-12-03T06:40:57.638Z,101366.84
2022-12-03T06:44:00.513Z,101369.47
2022-12-03T06:47:03.355Z,101373.69
2022-12-03T06:50:07.349Z,101378.81
2022-12-03T06:53:10.086Z,101384.84
2022-12-03T06:56:12.779Z,101388.31
2022-12-03T06:59:15.579Z,101382.31
2022-12-03T07:02:18.155Z,101379.84
2022-12-03T07:05:20.845Z,101388.34
2022-12-03T07:08:23.417Z,101390.91
2022-12-03T07:11:32.018Z,101384.91
2022-12-03T07:14:34.427Z,101390.09
2022-12-03T07:17:37.605Z,101387.53
2022-12-03T07:20:40.045Z,101381.63
2022-12-03T07:23:43.018Z,101381.63
2022-12-03T07:26:45.492Z,101384.19
2022-12-03T07:29:48.254Z,101394.44
2022-12-03T07:32:50.718Z,101384.12
2022-12-03T07:35:53.630Z,101390.97
2022-12-03T07:38:56.219Z,101391.00
2022-12-03T07:41:59.030Z,101394.44
2022-12-03T07:45:01.421Z,101388.50
2022-12-03T07:48:05.746Z,101393.59
2022-12-03T07:51:10.519Z,101385.91
2022-12-03T07:54:17.108Z,101389.34
2022-12-03T07:57:19.513Z,101379.09
2022-12-03T08:00:23.234Z,101380.81
2022-12-03T08:03:25.948Z,101387.66
2022-12-03T08:06:28.358Z,101387.66
2022-12-03T08:09:31.504Z,101392.81
2022-12-03T08:12:40.771Z,101395.34
2022-12-03T08:15:43.955Z,101394.56
2022-12-03T08:18:48.167Z,101394.53
2022-12-03T08:21:53.116Z,101397.97
2022-12-03T08:24:59.174Z,101389.41
2022-12-03T08:28:13.196Z,101397.97
2022-12-03T08:31:20.125Z,101401.41
2022-12-03T08:34:26.220Z,101398.00
2022-12-03T08:37:29.766Z,101401.41
2022-12-03T08:40:35.713Z,101398.00
2022-12-03T08:43:42.860Z,101395.44
2022-12-03T08:46:48.239Z,101398.84
2022-12-03T08:50:26.138Z,101397.16
2022-12-03T08:53:33.679Z,101403.13
2022-12-03T08:56:37.200Z,101396.28
2022-12-03T08:59:44.198Z,101410.81
2022-12-03T09:02:51.308Z,101412.50
2022-12-03T09:05:54.036Z,101419.31
2022-12-03T09:08:56.556Z,101420.16
2022-12-03T09:11:59.435Z,101412.41
2022-12-03T09:15:02.032Z,101398.69
2022-12-03T09:18:05.707Z,101406.41
2022-12-03T09:21:08.221Z,101406.44
2022-12-03T09:24:10.980Z,101404.75
2022-12-03T09:27:13.634Z,101403.00
2022-12-03T09:30:16.836Z,101394.38
2022-12-03T09:33:19.677Z,101388.34
2022-12-03T09:36:22.576Z,101387.41
2022-12-03T09:39:25.029Z,101392.56
2022-12-03T09:42:28.752Z,101382.28
2022-12-03T09:45:31.296Z,101381.28
2022-12-03T09:48:35.360Z,101388.94
2022-12-03T09:51:38.166Z,101384.47
2022-12-03T09:54:46.881Z,101373.31
2022-12-03T09:57:51.673Z,101372.50
2022-12-03T10:00:55.351Z,101370.72
2022-12-03T10:03:58.674Z,101367.22
2022-12-03T10:07:01.461Z,101374.75
2022-12-03T10:10:06.751Z,101374.47
2022-12-03T10:13:19.758Z,101366.72
2022-12-03T10:16:30.061Z,101364.75
2022-12-03T10:19:35.796Z,101358.66
2022-12-03T10:22:38.652Z,101341.31
2022-12-03T10:26:03.060Z,101342.72
2022-12-03T10:29:42.674Z,101345.69
2022-12-03T10:32:48.018Z,101342.97
2022-12-03T10:35:50.727Z,101331.06
2022-12-03T10:39:09.361Z,101325.53
2022-12-03T10:42:16.357Z,101330.69
2022-12-03T10:45:25.331Z,101321.37
2022-12-03T10:48:28.158Z,101325.63
2022-12-03T10:51:30.966Z,101321.44
2022-12-03T10:54:35.462Z,101325.56
2022-12-03T10:57:42.396Z,101319.44
2022-12-03T11:00:49.669Z,101320.34
2022-12-03T11:03:54.068Z,101317.75
2022-12-03T11:06:57.953Z,101311.63
2022-12-03T11:10:02.718Z,101311.37
2022-12-03T11:13:50.510Z,101316.28
2022-12-03T11:16:53.008Z,101301.66
2022-12-03T11:19:55.794Z,101294.78
2022-12-03T11:22:59.393Z,101287.47
2022-12-03T11:26:02.135Z,101276.97
2022-12-03T11:29:14.075Z,101276.31
2022-12-03T11:32:38.645Z,101272.66
2022-12-03T11:36:03.837Z,101275.28
2022-12-03T11:39:08.396Z,101270.75
2022-12-03T11:42:38.577Z,101268.75
2022-12-03T11:45:41.456Z,101261.22
2022-12-03T11:48:45.704Z,101265.50
2022-12-03T11:51:49.107Z,101260.91
2022-12-03T11:54:56.440Z,101261.88
2022-12-03T11:58:04.983Z,101260.16
2022-12-03T12:01:08.849Z,101258.94
2022-12-03T12:04:30.113Z,101252.59
2022-12-03T12:07:36.695Z,101255.19
2022-12-03T12:10:48.457Z,101249.31
2022-12-03T12:13:59.841Z,101252.62
2022-12-03T12:17:03.688Z,101243.87
2022-12-03T12:20:26.243Z,101237.31
2022-12-03T12:23:29.229Z,101233.53
2022-12-03T12:26:31.727Z,101228.38
2022-12-03T12:29:36.834Z,101225.75
2022-12-03T12:32:53.891Z,101220.47
2022-12-03T12:35:56.658Z,101227.91
2022-12-03T12:38:59.828Z,101230.25
2022-12-03T12:42:06.494Z,101229.13
2022-12-03T12:45:14.864Z,101223.63
2022-12-03T12:48:25.318Z,101221.66
2022-12-03T12:51:27.838Z,101220.28
2022-12-03T12:54:30.638Z,101222.97
2022-12-03T12:57:34.168Z,101215.59
2022-12-03T13:00:37.790Z,101214.13
2022-12-03T13:03:40.345Z,101204.03
2022-12-03T13:06:44.653Z,101213.66
2022-12-03T13:09:49.023Z,101208.62
2022-12-03T13:12:52.313Z,101213.09
2022-12-03T13:16:11.631Z,101219.03
2022-12-03T13:19:26.505Z,101213.09
2022-12-03T13:22:29.581Z,101219.13
2022-12-03T13:29:06.339Z,101228.12
2022-12-03T13:32:18.612Z,101221.28
2022-12-03T13:35:31.011Z,101221.50
2022-12-03T13:38:33.790Z,101224.44
2022-12-03T13:41:54.887Z,101226.16
2022-12-03T13:44:57.645Z,101226.00
2022-12-03T13:48:02.952Z,101228.66
2022-12-03T13:51:43.581Z,101223.59
2022-12-03T13:54:51.228Z,101224.63
2022-12-03T13:57:54.971Z,101224.50
2022-12-03T14:00:57.626Z,101219.47
2022-12-03T14:04:00.576Z,101229.00
2022-12-03T14:07:03.055Z,101227.22
2022-12-03T14:10:08.438Z,101234.88
2022-12-03T14:13:10.899Z,101240.28
2022-12-03T14:16:13.685Z,101240.34
2022-12-03T14:19:19.110Z,101241.97
2022-12-03T14:22:23.727Z,101237.81
2022-12-03T14:25:26.262Z,101243.03
2022-12-03T14:28:29.114Z,101245.56
2022-12-03T14:31:31.835Z,101236.09
2022-12-03T14:34:34.647Z,101234.53
2022-12-03T14:37:37.386Z,101238.91
2022-12-03T14:40:40.086Z,101240.75
2022-12-03T14:43:42.593Z,101241.62
2022-12-03T14:46:45.342Z,101246.84
2022-12-03T14:49:48.145Z,101240.87
2022-12-03T14:52:51.180Z,101251.94
2022-12-03T14:55:55.703Z,101246.84
2022-12-03T14:58:59.026Z,101255.50
2022-12-03T15:02:02.002Z,101247.03
2022-12-03T15:05:04.942Z,101255.72
2022-12-03T15:08:09.334Z,101256.66
2022-12-03T15:11:12.118Z,101250.72
2022-12-03T15:14:15.167Z,101250.78
2022-12-03T15:17:25.385Z,101248.25
2022-12-03T15:20:33.251Z,101247.44
2022-12-03T15:23:35.969Z,101248.19
2022-12-03T15:26:38.392Z,101247.44
2022-12-03T15:29:41.396Z,101248.31
2022-12-03T15:32:44.180Z,101251.78
2022-12-03T15:35:47.018Z,101257.91
2022-12-03T15:38:50.970Z,101256.19
2022-12-03T15:41:53.918Z,101257.09
2022-12-03T15:44:57.075Z,101256.31
2022-12-03T15:48:00.022Z,101257.19
2022-12-03T15:51:02.506Z,101258.97
2022-12-03T15:54:06.549Z,101254.75
2022-12-03T15:57:09.020Z,101254.78
2022-12-03T16:00:13.987Z,101254.81
2022-12-03T16:03:17.865Z,101256.56
2022-12-03T16:06:20.649Z,101253.16
2022-12-03T16:09:27.027Z,101254.03
2022-12-03T16:12:30.085Z,101252.38
2022-12-03T16:15:32.996Z,101245.53
2022-12-03T16:18:35.916Z,101255.81
2022-12-03T16:21:39.603Z,101259.28
2022-12-03T16:24:42.109Z,101267.84
2022-12-03T16:27:45.041Z,101264.47
2022-12-03T16:30:47.704Z,101261.03
2022-12-03T16:33:50.619Z,101261.06
2022-12-03T16:36:53.188Z,101260.19
2022-12-03T16:39:56.989Z,101261.06
2022-12-03T16:42:59.646Z,101261.09
2022-12-03T16:46:10.048Z,101255.94
2022-12-03T16:49:12.794Z,101261.94
2022-12-03T16:52:16.548Z,101261.09
2022-12-03T16:55:18.990Z,101257.69
2022-12-03T16:58:21.983Z,101261.94
2022-12-03T17:01:24.843Z,101265.38
2022-12-03T17:04:27.615Z,101261.09
2022-12-03T17:07:30.138Z,101265.34
2022-12-03T17:10:33.256Z,101264.50
2022-12-03T17:13:35.722Z,101262.81
2022-12-03T17:16:38.448Z,101273.06
2022-12-03T17:19:41.030Z,101267.06
2022-12-03T17:22:43.779Z,101271.34
2022-12-03T17:25:46.258Z,101266.22
2022-12-03T17:28:49.089Z,101270.50
2022-12-03T17:31:51.609Z,101264.50
2022-12-03T17:34:54.419Z,101268.75
2022-12-03T17:37:56.937Z,101275.62
2022-12-03T17:40:59.648Z,101267.06
2022-12-03T17:44:07.256Z,101267.06
2022-12-03T17:47:12.653Z,101271.34
2022-12-03T17:50:15.206Z,101263.63
2022-12-03T17:53:17.914Z,101267.94
2022-12-03T17:56:20.924Z,101267.94
2022-12-03T17:59:24.364Z,101271.37
2022-12-03T18:02:26.910Z,101262.84
2022-12-03T18:05:29.703Z,101264.53
2022-12-03T18:08:32.338Z,101263.69
2022-12-03T18:11:35.185Z,101256.00
2022-12-03T18:14:37.633Z,101273.94
2022-12-03T18:17:40.451Z,101270.50
2022-12-03T18:20:43.189Z,101267.94
2022-12-03T18:23:46.197Z,101269.66
2022-12-03T18:26:48.758Z,101263.66
2022-12-03T18:29:51.955Z,101272.22
2022-12-03T18:32:54.932Z,101261.97
2022-12-03T18:35:58.389Z,101261.97
2022-12-03T18:39:01.520Z,101262.81
2022-12-03T18:42:22.004Z,101270.53
2022-12-03T18:45:24.583Z,101268.81
2022-12-03T18:48:27.410Z,101267.94
2022-12-03T18:51:29.949Z,101265.34
2022-12-03T18:54:32.766Z,101267.06
2022-12-03T18:57:35.218Z,101273.94
2022-12-03T19:00:40.217Z,101273.06
2022-12-03T19:03:42.752Z,101277.34
2022-12-03T19:06:45.508Z,101275.66
2022-12-03T19:09:48.013Z,101269.66
2022-12-03T19:12:50.962Z,101276.50
2022-12-03T19:15:55.155Z,101268.81
2022-12-03T19:18:58.321Z,101271.37
2022-12-03T19:22:01.206Z,101273.94
2022-12-03T19:25:04.731Z,101281.63
2022-12-03T19:28:07.708Z,101289.28
2022-12-03T19:31:18.202Z,101279.00
2022-12-03T19:34:21.235Z,101279.88
2022-12-03T19:37:23.975Z,101281.56
2022-12-03T19:40:26.570Z,101286.69
2022-12-03T19:43:31.819Z,101294.41
2022-12-03T19:46:34.392Z,101297.84
2022-12-03T19:49:37.174Z,101290.97
2022-12-03T19:52:39.619Z,101292.69
2022-12-03T19:55:42.411Z,101290.97
2022-12-03T19:58:46.556Z,101291.78
2022-12-03T20:01:50.080Z,101290.06
2022-12-03T20:04:52.880Z,101297.81
2022-12-03T20:07:55.391Z,101298.69
2022-12-03T20:11:14.062Z,101294.41
2022-12-03T20:14:17.280Z,101297.81
2022-12-03T20:17:19.992Z,101291.88
2022-12-03T20:20:22.598Z,101291.88
2022-12-03T20:23:25.768Z,101293.56
2022-12-03T20:26:28.838Z,101292.72
2022-12-03T20:29:31.671Z,101297.00
2022-12-03T20:32:37.365Z,101300.44
2022-12-03T20:35:43.470Z,101294.44
2022-12-03T20:38:46.347Z,101288.44
2022-12-03T20:42:07.865Z,101294.41
2022-12-03T20:45:10.693Z,101296.97
2022-12-03T20:48:13.569Z,101296.97
2022-12-03T20:51:18.811Z,101299.53
2022-12-03T20:54:21.623Z,101290.13
2022-12-03T20:57:24.395Z,101286.72
2022-12-03T21:00:27.638Z,101293.56
2022-12-03T21:03:30.112Z,101288.41
2022-12-03T21:06:35.833Z,101295.25
2022-12-03T21:09:38.427Z,101292.69
2022-12-03T21:12:41.197Z,101292.66
2022-12-03T21:15:44.835Z,101287.53
2022-12-03T21:18:47.689Z,101290.13
2022-12-03T21:21:50.362Z,101285.84
2022-12-03T21:24:53.157Z,101283.25
2022-12-03T21:27:55.775Z,101282.44
2022-12-03T21:31:04.374Z,101282.44
2022-12-03T21:34:08.428Z,101286.69
2022-12-03T21:37:11.150Z,101294.37
2022-12-03T21:40:13.827Z,101298.69
2022-12-03T21:43:16.610Z,101296.12
2022-12-03T21:47:10.002Z,101290.13
2022-12-03T21:49:42.050Z,101287.56
2022-12-03T21:52:44.577Z,101290.97
2022-12-03T21:55:47.297Z,101284.13
2022-12-03T21:58:49.815Z,101279.84
2022-12-03T22:01:52.641Z,101282.41
2022-12-03T22:04:55.403Z,101276.44
2022-12-03T22:07:57.990Z,101280.72
2022-12-03T22:11:05.499Z,101277.31
2022-12-03T22:14:09.864Z,101265.38
2022-12-03T22:17:12.714Z,101279.03
2022-12-03T22:20:15.637Z,101276.50
2022-12-03T22:23:18.425Z,101271.34
2022-12-03T22:26:20.921Z,101275.66
2022-12-03T22:29:23.703Z,101266.22
2022-12-03T22:32:26.292Z,101273.94
2022-12-03T22:35:29.172Z,101264.53
2022-12-03T22:38:33.003Z,101251.69
2022-12-03T22:41:35.794Z,101253.41
2022-12-03T22:44:38.319Z,101255.13
2022-12-03T22:47:41.103Z,101254.25
2022-12-03T22:50:45.674Z,101246.56
2022-12-03T22:53:53.798Z,101257.69
2022-12-03T22:56:57.087Z,101248.28
2022-12-03T22:59:59.926Z,101256.84
2022-12-03T23:03:03.565Z,101257.69
2022-12-03T23:06:11.154Z,101256.84
2022-12-03T23:09:14.046Z,101256.00
2022-12-03T23:12:16.823Z,101249.97
2022-12-03T23:15:19.268Z,101250.00
2022-12-03T23:18:22.472Z,101255.97
2022-12-03T23:21:30.324Z,101247.44
2022-12-03T23:24:36.525Z,101247.41
2022-12-03T23:27:39.065Z,101239.75
2022-12-03T23:30:41.874Z,101247.41
2022-12-03T23:33:44.627Z,101240.59
2022-12-03T23:36:47.383Z,101235.44
2022-12-03T23:39:50.219Z,101240.59
2022-12-03T23:42:53.042Z,101228.62
2022-12-03T23:46:01.822Z,101224.34
2022-12-03T23:49:05.118Z,101225.22
2022-12-03T23:52:07.574Z,101226.06
2022-12-03T23:55:10.592Z,101230.31
2022-12-03T23:58:13.111Z,101225.19
